createdAt,value
2018-11-02T00:02:17.048Z,0.72
2018-11-02T00:04:47.062Z,0.90
2018-11-02T00:07:17.298Z,1.05
2018-11-02T00:09:47.154Z,0.88
2018-11-02T00:12:16.279Z,1.00
2018-11-02T00:14:47.679Z,1.30
2018-11-02T00:17:15.934Z,1.40
2018-11-02T00:19:44.113Z,1.12
2018-11-02T00:22:13.508Z,1.05
2018-11-02T00:24:42.297Z,1.20
2018-11-02T00:27:10.456Z,1.10
2018-11-02T00:29:38.587Z,1.37
2018-11-02T00:32:07.465Z,1.37
2018-11-02T00:34:36.090Z,1.12
2018-11-02T00:37:05.720Z,1.15
2018-11-02T00:39:35.070Z,1.50
2018-11-02T00:42:04.913Z,2.12
2018-11-02T00:44:34.730Z,1.77
2018-11-02T00:47:04.824Z,1.80
2018-11-02T00:49:35.356Z,1.37
2018-11-02T00:52:05.125Z,1.85
2018-11-02T00:54:35.728Z,1.82
2018-11-02T00:57:05.572Z,1.95
2018-11-02T00:59:35.847Z,1.80
2018-11-02T01:02:05.515Z,1.92
2018-11-02T01:04:35.787Z,1.95
2018-11-02T01:07:05.897Z,2.02
2018-11-02T01:09:36.277Z,2.40
2018-11-02T01:12:06.352Z,2.40
2018-11-02T01:14:36.286Z,2.30
2018-11-02T01:17:07.406Z,2.62
2018-11-02T01:19:35.538Z,2.58
2018-11-02T01:22:05.182Z,2.33
2018-11-02T01:24:33.628Z,2.52
2018-11-02T01:27:01.769Z,3.70
2018-11-02T01:29:30.706Z,3.52
2018-11-02T01:31:59.016Z,3.10
2018-11-02T01:34:27.301Z,3.05
2018-11-02T01:36:56.357Z,3.03
2018-11-02T01:39:25.590Z,2.80
2018-11-02T01:41:53.734Z,3.45
2018-11-02T01:44:21.899Z,3.80
2018-11-02T01:46:50.069Z,3.60
2018-11-02T01:49:18.240Z,3.27
2018-11-02T01:51:47.226Z,3.95
2018-11-02T01:54:15.350Z,4.15
2018-11-02T01:56:43.726Z,4.47
2018-11-02T01:59:11.877Z,4.35
2018-11-02T02:01:40.015Z,3.67
2018-11-02T02:04:08.768Z,4.92
2018-11-02T02:06:37.041Z,5.28
2018-11-02T02:09:08.138Z,5.83
2018-11-02T02:11:36.335Z,5.55
2018-11-02T02:14:04.750Z,5.22
2018-11-02T02:16:32.899Z,6.20
2018-11-02T02:19:01.106Z,6.00
2018-11-02T02:21:29.234Z,5.60
2018-11-02T02:23:57.371Z,6.10
2018-11-02T02:26:25.531Z,5.60
2018-11-02T02:28:53.669Z,5.53
2018-11-02T02:31:21.790Z,6.67
2018-11-02T02:33:49.950Z,5.67
2018-11-02T02:36:18.104Z,5.17
2018-11-02T02:38:46.261Z,5.03
2018-11-02T02:41:14.397Z,5.60
2018-11-02T02:43:42.538Z,5.70
2018-11-02T02:46:11.186Z,5.62
2018-11-02T02:48:39.336Z,5.47
2018-11-02T02:51:07.528Z,5.55
2018-11-02T02:53:35.726Z,5.90
2018-11-02T02:56:03.873Z,5.60
2018-11-02T02:58:32.067Z,5.53
2018-11-02T03:01:00.225Z,5.53
2018-11-02T03:03:28.416Z,5.58
2018-11-02T03:05:57.086Z,6.05
2018-11-02T03:08:25.233Z,6.65
2018-11-02T03:10:53.592Z,6.40
2018-11-02T03:13:21.623Z,6.75
2018-11-02T03:15:49.762Z,6.00
2018-11-02T03:18:17.919Z,6.17
2018-11-02T03:20:46.056Z,6.08
2018-11-02T03:23:14.208Z,7.08
2018-11-02T03:25:43.093Z,6.83
2018-11-02T03:28:11.237Z,6.72
2018-11-02T03:30:39.382Z,6.90
2018-11-02T03:33:07.510Z,6.67
2018-11-02T03:35:35.671Z,7.60
2018-11-02T03:38:03.807Z,7.53
2018-11-02T03:40:32.027Z,7.60
2018-11-02T03:43:00.205Z,7.60
2018-11-02T03:45:28.321Z,6.55
2018-11-02T03:47:56.513Z,7.40
2018-11-02T03:50:24.738Z,6.92
2018-11-02T03:52:52.859Z,6.72
2018-11-02T03:55:21.067Z,6.90
2018-11-02T03:57:49.186Z,6.83
2018-11-02T04:00:17.329Z,7.33
2018-11-02T04:02:45.473Z,8.05
2018-11-02T04:05:13.688Z,8.23
2018-11-02T04:07:41.836Z,6.83
2018-11-02T04:10:10.782Z,7.40
2018-11-02T04:12:38.972Z,8.05
2018-11-02T04:15:07.238Z,8.58
2018-11-02T04:17:35.402Z,7.03
2018-11-02T04:20:03.527Z,7.55
2018-11-02T04:22:31.680Z,7.80
2018-11-02T04:24:59.830Z,7.20
2018-11-02T04:27:27.990Z,7.05
2018-11-02T04:29:56.910Z,6.42
2018-11-02T04:32:25.091Z,7.37
2018-11-02T04:34:53.286Z,6.42
2018-11-02T04:37:21.464Z,5.90
2018-11-02T04:39:49.602Z,7.67
2018-11-02T04:42:17.767Z,7.85
2018-11-02T04:44:47.680Z,7.33
2018-11-02T04:47:15.866Z,8.68
2018-11-02T04:49:44.015Z,8.48
2018-11-02T04:52:12.235Z,8.78
2018-11-02T04:54:40.395Z,7.83
2018-11-02T04:57:08.522Z,9.83
2018-11-02T04:59:36.805Z,8.03
2018-11-02T05:02:05.151Z,8.75
2018-11-02T05:04:33.302Z,8.48
2018-11-02T05:07:01.495Z,8.95
2018-11-02T05:09:29.635Z,9.53
2018-11-02T05:11:57.893Z,8.33
2018-11-02T05:14:26.026Z,7.97
2018-11-02T05:16:54.801Z,7.97
2018-11-02T05:19:23.361Z,8.15
2018-11-02T05:21:51.505Z,9.18
2018-11-02T05:24:19.723Z,10.65
2018-11-02T05:26:49.374Z,9.35
2018-11-02T05:29:18.989Z,9.45
2018-11-02T05:31:48.818Z,10.68
2018-11-02T05:34:18.633Z,8.53
2018-11-02T05:36:46.870Z,9.77
2018-11-02T05:39:15.391Z,8.53
2018-11-02T05:41:43.845Z,10.50
2018-11-02T05:44:12.274Z,8.40
2018-11-02T05:46:41.111Z,8.24
2018-11-02T05:49:09.250Z,9.20
2018-11-02T05:51:37.408Z,9.15
2018-11-02T05:54:06.610Z,7.90
2018-11-02T05:56:35.162Z,9.38
2018-11-02T05:59:04.518Z,9.15
2018-11-02T06:01:34.863Z,8.65
2018-11-02T06:04:03.506Z,7.65
2018-11-02T06:06:34.226Z,7.05
2018-11-02T06:09:03.948Z,7.50
2018-11-02T06:11:34.394Z,7.58
2018-11-02T06:14:04.713Z,7.17
2018-11-02T06:16:34.228Z,7.22
2018-11-02T06:19:04.919Z,7.35
2018-11-02T06:21:35.634Z,7.35
2018-11-02T06:24:05.098Z,7.95
2018-11-02T06:26:35.815Z,6.28
2018-11-02T06:29:04.325Z,6.92
2018-11-02T06:31:32.554Z,6.65
2018-11-02T06:34:01.666Z,8.40
2018-11-02T06:36:30.178Z,8.65
2018-11-02T06:39:00.402Z,8.25
2018-11-02T06:41:28.735Z,7.95
2018-11-02T06:43:56.879Z,8.25
2018-11-02T06:46:25.017Z,8.40
2018-11-02T06:48:54.137Z,9.33
2018-11-02T06:51:22.275Z,9.23
2018-11-02T06:53:50.508Z,11.60
2018-11-02T06:56:18.701Z,8.00
2018-11-02T06:58:46.902Z,9.40
2018-11-02T07:01:15.156Z,10.40
2018-11-02T07:03:43.330Z,8.85
2018-11-02T07:06:11.485Z,8.53
2018-11-02T07:08:39.727Z,8.45
2018-11-02T07:11:08.311Z,8.60
2018-11-02T07:13:37.131Z,9.13
2018-11-02T07:16:05.638Z,10.50
2018-11-02T07:18:33.901Z,10.18
2018-11-02T07:21:02.091Z,9.43
2018-11-02T07:23:30.230Z,12.15
2018-11-02T07:25:58.509Z,14.20
2018-11-02T07:28:26.674Z,12.03
2018-11-02T07:30:55.743Z,11.63
2018-11-02T07:33:24.274Z,11.00
2018-11-02T07:35:52.493Z,9.33
2018-11-02T07:38:20.752Z,9.60
2018-11-02T07:40:48.995Z,10.18
2018-11-02T07:43:17.146Z,10.58
2018-11-02T07:45:45.323Z,9.90
2018-11-02T07:48:13.498Z,11.03
2018-11-02T07:50:41.690Z,11.03
2018-11-02T07:53:09.894Z,11.68
2018-11-02T07:55:38.045Z,11.63
2018-11-02T07:58:06.351Z,13.70
2018-11-02T08:00:34.494Z,14.65
2018-11-02T08:03:02.687Z,11.75
2018-11-02T08:05:30.963Z,10.60
2018-11-02T08:07:59.094Z,10.70
2018-11-02T08:10:27.886Z,11.10
2018-11-02T08:12:56.055Z,10.30
2018-11-02T08:15:24.201Z,10.82
2018-11-02T08:17:53.211Z,11.53
2018-11-02T08:20:21.391Z,10.58
2018-11-02T08:22:49.611Z,10.98
2018-11-02T08:25:17.882Z,11.20
2018-11-02T08:27:46.126Z,11.05
2018-11-02T08:30:14.284Z,10.55
2018-11-02T08:32:42.497Z,10.70
2018-11-02T08:35:13.778Z,11.10
2018-11-02T08:37:42.297Z,11.50
2018-11-02T08:40:12.198Z,11.45
2018-11-02T08:42:40.489Z,11.97
2018-11-02T08:45:09.274Z,10.15
2018-11-02T08:47:37.570Z,11.03
2018-11-02T08:50:07.042Z,11.50
2018-11-02T08:52:35.291Z,11.73
2018-11-02T08:55:03.490Z,13.22
2018-11-02T08:57:31.684Z,13.38
2018-11-02T08:59:59.841Z,13.28
2018-11-02T09:02:28.534Z,13.38
2018-11-02T09:04:57.226Z,14.13
2018-11-02T09:07:25.485Z,14.43
2018-11-02T09:09:53.894Z,14.03
2018-11-02T09:12:22.058Z,12.53
2018-11-02T09:14:50.258Z,12.65
2018-11-02T09:17:18.435Z,16.75
2018-11-02T09:19:46.628Z,17.95
2018-11-02T09:22:14.847Z,17.60
2018-11-02T09:24:43.004Z,18.23
2018-11-02T09:27:11.217Z,16.95
2018-11-02T09:29:40.586Z,16.05
2018-11-02T09:32:08.763Z,15.63
2018-11-02T09:34:36.910Z,13.03
2018-11-02T09:37:05.382Z,12.75
2018-11-02T09:39:33.529Z,11.68
2018-11-02T09:42:01.668Z,14.00
2018-11-02T09:44:29.863Z,14.43
2018-11-02T09:46:57.989Z,13.80
2018-11-02T09:49:26.189Z,12.45
2018-11-02T09:51:54.406Z,12.30
2018-11-02T09:54:22.514Z,14.23
2018-11-02T09:56:50.681Z,13.47
2018-11-02T09:59:18.907Z,18.12
2018-11-02T10:01:47.067Z,17.75
2018-11-02T10:04:15.581Z,14.35
2018-11-02T10:06:43.750Z,13.72
2018-11-02T10:09:13.050Z,13.98
2018-11-02T10:11:41.065Z,11.45
2018-11-02T10:14:10.271Z,11.85
2018-11-02T10:16:38.454Z,10.03
2018-11-02T10:19:07.037Z,11.97
2018-11-02T10:21:35.256Z,11.88
2018-11-02T10:24:03.523Z,10.93
2018-11-02T10:26:31.541Z,13.50
2018-11-02T10:28:59.733Z,11.60
2018-11-02T10:31:27.903Z,13.08
2018-11-02T10:33:56.042Z,13.13
2018-11-02T10:36:24.275Z,13.60
2018-11-02T10:38:53.162Z,14.65
2018-11-02T10:41:26.419Z,13.10
2018-11-02T10:43:54.617Z,14.55
2018-11-02T10:46:22.883Z,14.83
2018-11-02T10:48:51.072Z,14.93
2018-11-02T10:51:19.229Z,14.98
2018-11-02T10:53:47.362Z,14.28
2018-11-02T10:56:15.596Z,15.80
2018-11-02T10:58:43.758Z,16.97
2018-11-02T11:01:17.387Z,14.53
2018-11-02T11:03:45.543Z,15.32
2018-11-02T11:06:13.813Z,16.40
2018-11-02T11:08:42.028Z,16.95
2018-11-02T11:11:10.391Z,16.25
2018-11-02T11:13:38.841Z,15.80
2018-11-02T11:16:06.772Z,15.85
2018-11-02T11:18:34.962Z,20.92
2018-11-02T11:21:03.125Z,15.78
2018-11-02T11:23:31.355Z,15.95
2018-11-02T11:25:59.514Z,15.60
2018-11-02T11:28:27.783Z,15.88
2018-11-02T11:30:56.038Z,15.58
2018-11-02T11:33:24.718Z,15.85
2018-11-02T11:35:52.883Z,17.37
2018-11-02T11:38:21.050Z,15.30
2018-11-02T11:40:49.302Z,15.13
2018-11-02T11:43:17.465Z,14.53
2018-11-02T11:45:45.683Z,15.85
2018-11-02T11:48:13.891Z,16.50
2018-11-02T11:50:42.143Z,17.25
2018-11-02T11:53:11.115Z,15.65
2018-11-02T11:55:39.267Z,16.50
2018-11-02T11:58:07.486Z,16.80
2018-11-02T12:00:35.714Z,16.37
2018-11-02T12:03:03.867Z,15.40
2018-11-02T12:05:32.015Z,13.00
2018-11-02T12:08:00.202Z,14.75
2018-11-02T12:10:28.513Z,15.20
2018-11-02T12:12:56.652Z,14.13
2018-11-02T12:15:24.828Z,13.95
2018-11-02T12:17:52.990Z,12.85
2018-11-02T12:20:24.381Z,13.32
2018-11-02T12:22:54.290Z,14.87
2018-11-02T12:25:22.440Z,15.68
2018-11-02T12:27:51.976Z,15.28
2018-11-02T12:30:20.418Z,16.12
2018-11-02T12:32:48.794Z,14.45
2018-11-02T12:35:17.866Z,14.03
2018-11-02T12:37:46.626Z,15.05
2018-11-02T12:40:16.040Z,15.18
2018-11-02T12:42:44.836Z,13.98
2018-11-02T12:45:14.635Z,15.55
2018-11-02T12:47:43.333Z,14.53
2018-11-02T12:50:16.111Z,15.10
2018-11-02T12:52:44.924Z,12.93
2018-11-02T12:55:13.699Z,13.48
2018-11-02T12:57:42.272Z,13.93
2018-11-02T13:00:15.358Z,12.95
2018-11-02T13:02:44.462Z,14.40
2018-11-02T13:05:12.722Z,14.33
2018-11-02T13:07:41.006Z,14.65
2018-11-02T13:10:11.537Z,15.08
2018-11-02T13:12:40.547Z,16.45
2018-11-02T13:15:10.855Z,15.78
2018-11-02T13:17:39.521Z,15.93
2018-11-02T13:20:08.228Z,13.65
2018-11-02T13:22:36.582Z,14.15
2018-11-02T13:25:05.726Z,14.98
2018-11-02T13:27:33.868Z,14.87
2018-11-02T13:30:02.140Z,12.95
2018-11-02T13:32:30.610Z,13.53
2018-11-02T13:34:58.792Z,12.95
2018-11-02T13:37:26.938Z,11.30
2018-11-02T13:39:55.203Z,13.30
2018-11-02T13:42:23.410Z,12.35
2018-11-02T13:44:51.558Z,11.65
2018-11-02T13:47:19.724Z,11.40
2018-11-02T13:49:47.891Z,12.78
2018-11-02T13:52:16.164Z,14.68
2018-11-02T13:54:44.394Z,13.20
2018-11-02T13:57:12.550Z,11.73
2018-11-02T13:59:40.717Z,11.18
2018-11-02T14:02:09.757Z,12.15
2018-11-02T14:04:37.955Z,18.32
2018-11-02T14:07:06.149Z,14.80
2018-11-02T14:09:34.378Z,12.50
2018-11-02T14:12:03.455Z,13.28
2018-11-02T14:14:31.731Z,14.30
2018-11-02T14:17:00.375Z,12.43
2018-11-02T14:19:28.797Z,10.13
2018-11-02T14:21:56.955Z,10.53
2018-11-02T14:24:25.763Z,11.43
2018-11-02T14:26:53.931Z,12.90
2018-11-02T14:29:22.127Z,18.32
2018-11-02T14:31:51.076Z,23.18
2018-11-02T14:34:19.255Z,21.12
2018-11-02T14:36:47.423Z,17.13
2018-11-02T14:39:15.655Z,14.63
2018-11-02T14:41:44.600Z,15.08
2018-11-02T14:44:12.783Z,14.47
2018-11-02T14:46:41.485Z,15.72
2018-11-02T14:49:09.555Z,14.83
2018-11-02T14:51:37.809Z,14.85
2018-11-02T14:54:09.146Z,12.33
2018-11-02T14:56:37.331Z,12.47
2018-11-02T14:59:05.487Z,13.78
2018-11-02T15:01:34.158Z,15.43
2018-11-02T15:04:02.337Z,17.23
2018-11-02T15:06:30.482Z,16.00
2018-11-02T15:08:58.672Z,14.18
2018-11-02T15:11:26.929Z,15.45
2018-11-02T15:13:55.160Z,14.78
2018-11-02T15:16:23.358Z,14.93
2018-11-02T15:18:51.535Z,15.08
2018-11-02T15:21:19.793Z,17.55
2018-11-02T15:23:48.053Z,20.72
2018-11-02T15:26:16.243Z,19.50
2018-11-02T15:28:45.011Z,15.25
2018-11-02T15:31:13.195Z,13.48
2018-11-02T15:33:41.389Z,13.88
2018-11-02T15:36:09.565Z,12.35
2018-11-02T15:38:37.787Z,10.13
2018-11-02T15:41:05.969Z,12.40
2018-11-02T15:43:34.141Z,11.25
2018-11-02T15:46:02.318Z,12.23
2018-11-02T15:48:30.543Z,10.90
2018-11-02T15:50:58.792Z,11.18
2018-11-02T15:53:27.141Z,10.43
2018-11-02T15:55:58.511Z,10.30
2018-11-02T15:58:26.692Z,10.20
2018-11-02T16:00:54.854Z,11.00
2018-11-02T16:03:23.014Z,10.30
2018-11-02T16:05:51.174Z,9.55
2018-11-02T16:08:19.352Z,14.23
2018-11-02T16:10:47.538Z,11.15
2018-11-02T16:13:15.820Z,10.85
2018-11-02T16:15:44.009Z,12.73
2018-11-02T16:18:12.159Z,10.18
2018-11-02T16:20:40.351Z,10.72
2018-11-02T16:23:08.911Z,12.40
2018-11-02T16:25:37.171Z,14.75
2018-11-02T16:28:05.383Z,11.63
2018-11-02T16:30:34.034Z,10.72
2018-11-02T16:33:02.222Z,10.23
2018-11-02T16:35:30.362Z,11.00
2018-11-02T16:37:58.582Z,11.95
2018-11-02T16:40:26.745Z,9.85
2018-11-02T16:42:55.335Z,10.03
2018-11-02T16:45:23.490Z,11.43
2018-11-02T16:47:51.678Z,9.65
2018-11-02T16:50:19.826Z,10.43
2018-11-02T16:52:48.030Z,10.03
2018-11-02T16:55:16.169Z,10.10
2018-11-02T16:57:45.311Z,16.30
2018-11-02T17:00:19.118Z,15.65
2018-11-02T17:02:48.307Z,13.22
2018-11-02T17:05:16.928Z,11.38
2018-11-02T17:07:45.092Z,11.53
2018-11-02T17:10:14.380Z,23.20
2018-11-02T17:12:43.069Z,16.40
2018-11-02T17:15:14.400Z,8.30
2018-11-02T17:17:42.666Z,7.53
2018-11-02T17:20:14.753Z,7.50
2018-11-02T17:22:43.030Z,15.30
2018-11-02T17:25:11.978Z,12.20
2018-11-02T17:27:40.357Z,16.80
2018-11-02T17:30:11.201Z,14.38
2018-11-02T17:32:39.488Z,7.67
2018-11-02T17:35:08.006Z,12.65
2018-11-02T17:37:36.533Z,9.75
2018-11-02T17:40:04.947Z,12.05
2018-11-02T17:42:33.134Z,11.50
2018-11-02T17:45:01.358Z,9.68
2018-11-02T17:47:29.553Z,9.40
2018-11-02T17:49:57.671Z,7.03
2018-11-02T17:52:26.078Z,9.18
2018-11-02T17:54:54.233Z,7.67
2018-11-02T17:57:22.965Z,7.55
2018-11-02T17:59:52.832Z,7.90
2018-11-02T18:02:23.533Z,10.07
2018-11-02T18:04:54.098Z,8.03
2018-11-02T18:07:24.162Z,11.90
2018-11-02T18:09:54.414Z,23.92
2018-11-02T18:12:24.399Z,16.80
2018-11-02T18:14:54.246Z,14.60
2018-11-02T18:17:24.802Z,6.70
2018-11-02T18:19:54.715Z,15.17
2018-11-02T18:22:23.001Z,8.50
2018-11-02T18:24:51.012Z,10.60
2018-11-02T18:27:19.171Z,6.30
2018-11-02T18:29:47.394Z,7.60
2018-11-02T18:32:15.594Z,7.67
2018-11-02T18:34:43.809Z,7.63
2018-11-02T18:37:11.885Z,8.43
2018-11-02T18:39:40.038Z,8.70
2018-11-02T18:42:08.188Z,8.27
2018-11-02T18:44:36.883Z,10.63
2018-11-02T18:47:05.150Z,7.60
2018-11-02T18:49:33.327Z,11.47
2018-11-02T18:52:01.596Z,13.33
2018-11-02T18:54:29.774Z,12.10
2018-11-02T18:56:57.902Z,12.73
2018-11-02T18:59:26.089Z,13.57
2018-11-02T19:01:54.256Z,10.50
2018-11-02T19:04:22.401Z,9.87
2018-11-02T19:06:50.666Z,8.30
2018-11-02T19:09:20.050Z,9.10
2018-11-02T19:11:49.893Z,7.33
2018-11-02T19:14:18.371Z,9.83
2018-11-02T19:16:46.690Z,9.43
2018-11-02T19:19:16.051Z,17.73
2018-11-02T19:21:44.344Z,13.67
2018-11-02T19:24:12.356Z,12.30
2018-11-02T19:26:41.418Z,13.60
2018-11-02T19:29:10.335Z,12.47
2018-11-02T19:31:38.475Z,11.67
2018-11-02T19:34:07.127Z,11.77
2018-11-02T19:36:35.294Z,13.00
2018-11-02T19:39:05.114Z,11.63
2018-11-02T19:41:33.367Z,12.97
2018-11-02T19:44:01.530Z,11.63
2018-11-02T19:46:29.670Z,16.23
2018-11-02T19:48:57.889Z,11.03
2018-11-02T19:51:26.100Z,11.17
2018-11-02T19:53:54.262Z,10.87
2018-11-02T19:56:22.443Z,11.63
2018-11-02T19:58:50.598Z,9.83
2018-11-02T20:01:18.751Z,10.83
2018-11-02T20:03:46.934Z,10.27
2018-11-02T20:06:15.090Z,12.90
2018-11-02T20:08:43.238Z,10.97
2018-11-02T20:11:11.423Z,12.80
2018-11-02T20:13:39.570Z,28.03
2018-11-02T20:16:07.820Z,26.47
2018-11-02T20:18:36.773Z,10.40
2018-11-02T20:21:05.173Z,8.77
2018-11-02T20:23:33.366Z,8.33
2018-11-02T20:26:02.118Z,8.30
2018-11-02T20:28:30.296Z,8.43
2018-11-02T20:30:58.512Z,8.93
2018-11-02T20:33:26.703Z,11.87
2018-11-02T20:35:54.901Z,10.00
2018-11-02T20:38:23.059Z,10.43
2018-11-02T20:40:51.262Z,12.63
2018-11-02T20:43:19.414Z,12.67
2018-11-02T20:45:47.578Z,11.33
2018-11-02T20:48:15.800Z,12.67
2018-11-02T20:50:43.946Z,12.47
2018-11-02T20:53:12.106Z,10.13
2018-11-02T20:55:40.251Z,9.73
2018-11-02T20:58:08.503Z,10.67
2018-11-02T21:00:37.677Z,13.13
2018-11-02T21:03:07.270Z,9.60
2018-11-02T21:05:35.769Z,10.80
2018-11-02T21:08:05.040Z,8.23
2018-11-02T21:10:33.086Z,8.03
2018-11-02T21:13:02.033Z,9.00
2018-11-02T21:15:31.670Z,13.30
2018-11-02T21:18:01.679Z,12.03
2018-11-02T21:20:32.090Z,11.23
2018-11-02T21:23:00.908Z,10.80
2018-11-02T21:25:31.415Z,10.40
2018-11-02T21:28:01.872Z,10.47
2018-11-02T21:30:30.091Z,13.43
2018-11-02T21:32:58.251Z,15.43
2018-11-02T21:35:26.459Z,12.73
2018-11-02T21:37:54.641Z,12.63
2018-11-02T21:40:23.997Z,11.10
2018-11-02T21:42:52.253Z,10.23
2018-11-02T21:45:21.473Z,10.33
2018-11-02T21:47:49.636Z,12.20
2018-11-02T21:50:18.059Z,10.10
2018-11-02T21:52:46.223Z,9.47
2018-11-02T21:55:14.377Z,9.20
2018-11-02T21:57:42.561Z,8.27
2018-11-02T22:00:13.187Z,11.73
2018-11-02T22:02:43.818Z,14.27
2018-11-02T22:05:14.045Z,8.77
2018-11-02T22:07:44.882Z,7.80
2018-11-02T22:10:14.392Z,10.50
2018-11-02T22:12:43.839Z,10.33
2018-11-02T22:15:13.775Z,9.77
2018-11-02T22:17:42.502Z,10.07
2018-11-02T22:20:12.923Z,9.17
2018-11-02T22:22:41.427Z,9.67
2018-11-02T22:25:10.375Z,9.10
2018-11-02T22:27:38.534Z,10.57
2018-11-02T22:30:08.926Z,9.07
2018-11-02T22:32:37.078Z,12.23
2018-11-02T22:35:05.519Z,10.80
2018-11-02T22:37:33.755Z,10.50
2018-11-02T22:40:01.920Z,19.97
2018-11-02T22:42:30.849Z,21.60
2018-11-02T22:45:00.738Z,23.93
2018-11-02T22:47:30.262Z,15.70
2018-11-02T22:50:00.123Z,13.77
2018-11-02T22:52:30.341Z,17.63
2018-11-02T22:55:00.398Z,13.93
2018-11-02T22:57:30.252Z,11.90
2018-11-02T22:59:59.900Z,11.47
2018-11-02T23:02:28.045Z,9.10
2018-11-02T23:04:57.829Z,8.30
2018-11-02T23:07:26.913Z,8.90
2018-11-02T23:09:56.353Z,9.10
2018-11-02T23:12:26.726Z,11.67
2018-11-02T23:14:58.148Z,10.10
2018-11-02T23:17:28.243Z,10.63
2018-11-02T23:19:58.065Z,11.90
2018-11-02T23:22:29.442Z,11.13
2018-11-02T23:24:59.999Z,14.57
2018-11-02T23:27:29.473Z,8.47
2018-11-02T23:29:58.786Z,9.83
2018-11-02T23:32:31.869Z,8.67
2018-11-02T23:35:01.568Z,11.87
2018-11-02T23:37:30.803Z,10.43
2018-11-02T23:39:59.746Z,17.80
2018-11-02T23:42:29.785Z,21.07
2018-11-02T23:45:01.202Z,17.10
2018-11-02T23:47:30.950Z,17.87
2018-11-02T23:50:01.066Z,10.27
2018-11-02T23:52:30.995Z,9.70
2018-11-02T23:55:01.577Z,9.27
2018-11-02T23:57:31.667Z,9.53
